createdAt,value
2022-08-03T00:02:19.655Z,44.70
2022-08-03T00:04:47.940Z,44.70
2022-08-03T00:07:17.553Z,44.70
2022-08-03T00:09:45.564Z,44.80
2022-08-03T00:12:13.807Z,44.80
2022-08-03T00:14:41.933Z,44.80
2022-08-03T00:17:09.820Z,44.80
2022-08-03T00:19:37.735Z,44.90
2022-08-03T00:22:05.649Z,44.80
2022-08-03T00:24:36.246Z,44.80
2022-08-03T00:27:04.243Z,45.00
2022-08-03T00:29:32.107Z,44.90
2022-08-03T00:32:00.469Z,45.00
2022-08-03T00:34:35.256Z,45.00
2022-08-03T00:37:09.347Z,45.10
2022-08-03T00:39:38.533Z,45.10
2022-08-03T00:42:06.896Z,45.30
2022-08-03T00:44:41.138Z,45.10
2022-08-03T00:47:10.882Z,45.30
2022-08-03T00:49:39.578Z,45.00
2022-08-03T00:52:10.412Z,45.10
2022-08-03T00:54:40.790Z,45.10
2022-08-03T00:57:09.127Z,45.30
2022-08-03T00:59:38.199Z,45.10
2022-08-03T01:02:07.031Z,45.10
2022-08-03T01:04:34.962Z,45.10
2022-08-03T01:07:11.655Z,45.20
2022-08-03T01:09:49.881Z,45.40
2022-08-03T01:12:27.673Z,45.30
2022-08-03T01:15:03.870Z,45.30
2022-08-03T01:17:38.759Z,45.20
2022-08-03T01:20:10.373Z,45.20
2022-08-03T01:23:00.928Z,45.20
2022-08-03T01:25:45.848Z,45.20
2022-08-03T01:28:30.052Z,45.30
2022-08-03T01:31:06.048Z,45.30
2022-08-03T01:33:38.194Z,45.20
2022-08-03T01:36:12.986Z,45.10
2022-08-03T01:38:45.301Z,45.10
2022-08-03T01:41:21.451Z,45.20
2022-08-03T01:44:26.967Z,45.10
2022-08-03T01:46:47.552Z,44.90
2022-08-03T01:49:16.809Z,44.90
2022-08-03T01:51:57.874Z,44.90
2022-08-03T01:54:35.894Z,45.10
2022-08-03T01:57:04.856Z,45.10
2022-08-03T01:59:35.629Z,45.00
2022-08-03T02:02:15.559Z,45.10
2022-08-03T02:04:56.713Z,45.10
2022-08-03T02:07:25.541Z,45.00
2022-08-03T02:09:55.221Z,44.90
2022-08-03T02:12:26.206Z,45.00
2022-08-03T02:14:56.379Z,45.10
2022-08-03T02:17:38.674Z,44.90
2022-08-03T02:20:09.665Z,45.10
2022-08-03T02:22:41.724Z,44.90
2022-08-03T02:25:11.345Z,45.10
2022-08-03T02:27:44.097Z,45.00
2022-08-03T02:30:14.569Z,45.10
2022-08-03T02:32:48.449Z,45.00
2022-08-03T02:35:19.610Z,45.20
2022-08-03T02:37:52.905Z,45.10
2022-08-03T02:40:22.670Z,45.20
2022-08-03T02:42:55.876Z,45.10
2022-08-03T02:45:26.900Z,45.30
2022-08-03T02:48:01.181Z,45.40
2022-08-03T02:50:30.901Z,45.50
2022-08-03T02:53:00.817Z,45.30
2022-08-03T02:55:29.397Z,45.50
2022-08-03T02:58:01.426Z,45.50
2022-08-03T03:00:31.963Z,45.50
2022-08-03T03:03:03.715Z,45.40
2022-08-03T03:05:56.115Z,45.50
2022-08-03T03:08:26.096Z,45.40
2022-08-03T03:10:55.908Z,45.30
2022-08-03T03:13:24.451Z,45.20
2022-08-03T03:15:54.336Z,45.30
2022-08-03T03:18:25.219Z,45.40
2022-08-03T03:20:54.157Z,45.50
2022-08-03T03:23:23.301Z,45.30
2022-08-03T03:25:52.695Z,45.30
2022-08-03T03:28:20.915Z,45.20
2022-08-03T03:30:52.590Z,45.30
2022-08-03T03:33:21.562Z,45.30
2022-08-03T03:35:51.764Z,45.30
2022-08-03T03:38:20.088Z,45.60
2022-08-03T03:40:48.848Z,45.50
2022-08-03T03:43:18.450Z,45.50
2022-08-03T03:45:47.909Z,45.50
2022-08-03T03:48:15.961Z,45.60
2022-08-03T03:50:45.375Z,45.70
2022-08-03T03:53:15.829Z,45.60
2022-08-03T03:56:01.855Z,45.70
2022-08-03T03:58:31.925Z,45.50
2022-08-03T04:00:59.934Z,45.60
2022-08-03T04:03:27.996Z,45.60
2022-08-03T04:06:13.636Z,45.60
2022-08-03T04:09:00.374Z,45.60
2022-08-03T04:11:33.166Z,45.60
2022-08-03T04:14:06.185Z,45.60
2022-08-03T04:16:43.194Z,45.70
2022-08-03T04:19:17.484Z,45.80
2022-08-03T04:21:53.800Z,45.60
2022-08-03T04:24:28.872Z,45.80
2022-08-03T04:26:58.825Z,45.70
2022-08-03T04:29:28.329Z,45.60
2022-08-03T04:31:59.605Z,45.70
2022-08-03T04:34:28.278Z,45.80
2022-08-03T04:37:00.929Z,45.80
2022-08-03T04:39:33.782Z,45.90
2022-08-03T04:42:08.535Z,46.00
2022-08-03T04:44:40.397Z,45.90
2022-08-03T04:47:08.597Z,45.80
2022-08-03T04:49:38.310Z,45.90
2022-08-03T04:52:08.328Z,45.90
2022-08-03T04:54:42.821Z,46.00
2022-08-03T04:57:22.772Z,46.30
2022-08-03T04:59:58.206Z,45.80
2022-08-03T05:02:30.235Z,45.80
2022-08-03T05:04:58.543Z,45.90
2022-08-03T05:07:26.482Z,46.10
2022-08-03T05:10:15.843Z,46.20
2022-08-03T05:12:45.517Z,46.30
2022-08-03T05:15:13.820Z,46.30
2022-08-03T05:17:41.844Z,46.40
2022-08-03T05:20:11.360Z,46.60
2022-08-03T05:22:39.377Z,47.30
2022-08-03T05:25:09.313Z,46.80
2022-08-03T05:27:45.318Z,47.10
2022-08-03T05:30:30.702Z,47.00
2022-08-03T05:33:01.681Z,47.20
2022-08-03T05:36:01.566Z,47.30
2022-08-03T05:38:24.169Z,47.50
2022-08-03T05:41:21.624Z,47.50
2022-08-03T05:43:46.080Z,47.90
2022-08-03T05:46:14.500Z,48.00
2022-08-03T05:48:42.927Z,48.20
2022-08-03T05:51:12.459Z,48.40
2022-08-03T05:53:41.030Z,48.70
2022-08-03T05:56:13.819Z,49.00
2022-08-03T05:58:43.981Z,49.40
2022-08-03T06:01:11.968Z,49.50
2022-08-03T06:03:40.067Z,49.80
2022-08-03T06:06:07.993Z,50.00
2022-08-03T06:08:36.081Z,50.00
2022-08-03T06:11:04.763Z,50.20
2022-08-03T06:13:34.200Z,50.30
2022-08-03T06:16:02.194Z,50.50
2022-08-03T06:18:30.168Z,50.60
2022-08-03T06:20:58.243Z,50.70
2022-08-03T06:23:53.117Z,50.80
2022-08-03T06:26:24.441Z,50.90
2022-08-03T06:28:54.955Z,51.10
2022-08-03T06:31:32.188Z,51.30
2022-08-03T06:34:32.697Z,51.30
2022-08-03T06:36:53.139Z,51.50
2022-08-03T06:39:23.242Z,51.80
2022-08-03T06:41:52.705Z,52.30
2022-08-03T06:44:22.043Z,53.10
2022-08-03T06:46:51.148Z,54.20
2022-08-03T06:49:19.180Z,55.40
2022-08-03T06:52:05.468Z,57.10
2022-08-03T06:54:36.000Z,59.00
2022-08-03T06:57:04.618Z,62.40
2022-08-03T07:00:09.094Z,65.10
2022-08-03T07:02:21.806Z,66.60
2022-08-03T07:04:49.966Z,67.30
2022-08-03T07:07:19.196Z,67.30
2022-08-03T07:09:56.394Z,65.60
2022-08-03T07:12:26.121Z,64.60
2022-08-03T07:15:00.408Z,63.00
2022-08-03T07:17:29.979Z,60.90
2022-08-03T07:19:58.101Z,59.70
2022-08-03T07:22:26.044Z,58.50
2022-08-03T07:24:54.103Z,57.50
2022-08-03T07:27:22.561Z,56.70
2022-08-03T07:29:50.526Z,56.00
2022-08-03T07:32:19.887Z,55.30
2022-08-03T07:34:47.944Z,54.30
2022-08-03T07:37:15.829Z,53.90
2022-08-03T07:39:43.767Z,53.00
2022-08-03T07:42:11.693Z,52.40
2022-08-03T07:44:40.488Z,51.90
2022-08-03T07:47:08.438Z,51.70
2022-08-03T07:49:42.286Z,51.20
2022-08-03T07:52:28.361Z,50.60
2022-08-03T07:54:56.506Z,50.50
2022-08-03T07:57:24.416Z,50.10
2022-08-03T08:00:02.006Z,49.70
2022-08-03T08:02:30.447Z,49.40
2022-08-03T08:05:04.949Z,49.00
2022-08-03T08:07:33.565Z,48.60
2022-08-03T08:10:01.481Z,48.50
2022-08-03T08:12:29.929Z,48.00
2022-08-03T08:14:57.823Z,47.60
2022-08-03T08:17:25.775Z,47.30
2022-08-03T08:19:53.686Z,46.80
2022-08-03T08:22:30.420Z,46.30
2022-08-03T08:24:58.979Z,45.80
2022-08-03T08:27:27.298Z,46.00
2022-08-03T08:29:57.544Z,45.70
2022-08-03T08:32:30.478Z,45.60
2022-08-03T08:34:58.513Z,45.50
2022-08-03T08:37:27.751Z,45.20
2022-08-03T08:39:57.173Z,44.50
2022-08-03T08:42:25.233Z,44.20
2022-08-03T08:44:53.560Z,44.20
2022-08-03T08:47:26.074Z,44.00
2022-08-03T08:50:09.222Z,43.10
2022-08-03T08:52:42.265Z,43.10
2022-08-03T08:55:17.052Z,42.50
2022-08-03T08:57:49.762Z,42.10
2022-08-03T09:00:18.677Z,41.30
2022-08-03T09:02:47.103Z,40.70
2022-08-03T09:05:16.287Z,40.10
2022-08-03T09:07:47.048Z,39.60
2022-08-03T09:10:19.610Z,39.00
2022-08-03T09:12:49.731Z,38.80
2022-08-03T09:15:19.986Z,38.20
2022-08-03T09:17:51.046Z,37.70
2022-08-03T09:20:20.377Z,37.20
2022-08-03T09:22:58.878Z,37.00
2022-08-03T09:25:32.098Z,36.40
2022-08-03T09:28:10.367Z,35.80
2022-08-03T09:30:40.413Z,35.80
2022-08-03T09:33:10.220Z,35.80
2022-08-03T09:35:54.469Z,35.60
2022-08-03T09:38:27.343Z,35.60
2022-08-03T09:41:00.006Z,36.10
2022-08-03T09:43:28.780Z,37.00
2022-08-03T09:46:04.813Z,39.00
2022-08-03T09:48:34.902Z,40.40
2022-08-03T09:51:13.313Z,41.20
2022-08-03T09:53:59.659Z,41.20
2022-08-03T09:56:43.628Z,40.50
2022-08-03T09:59:12.710Z,40.00
2022-08-03T10:01:42.492Z,38.90
2022-08-03T10:04:16.836Z,38.50
2022-08-03T10:06:45.685Z,37.80
2022-08-03T10:09:17.129Z,37.60
2022-08-03T10:11:46.861Z,37.30
2022-08-03T10:14:18.928Z,37.10
2022-08-03T10:16:48.668Z,37.10
2022-08-03T10:19:17.468Z,37.00
2022-08-03T10:21:50.971Z,36.90
2022-08-03T10:24:26.997Z,36.60
2022-08-03T10:27:07.133Z,36.70
2022-08-03T10:29:39.502Z,36.60
2022-08-03T10:32:14.522Z,36.70
2022-08-03T10:34:44.830Z,36.20
2022-08-03T10:37:15.641Z,36.40
2022-08-03T10:39:54.249Z,36.50
2022-08-03T10:42:24.497Z,36.30
2022-08-03T10:45:02.321Z,36.50
2022-08-03T10:47:31.276Z,36.50
2022-08-03T10:49:59.636Z,36.70
2022-08-03T10:52:32.609Z,36.60
2022-08-03T10:55:38.514Z,36.60
2022-08-03T10:58:11.122Z,37.00
2022-08-03T11:00:51.363Z,37.20
2022-08-03T11:03:19.306Z,36.90
2022-08-03T11:05:49.023Z,37.00
2022-08-03T11:08:32.017Z,37.10
2022-08-03T11:11:03.643Z,36.60
2022-08-03T11:13:33.833Z,36.20
2022-08-03T11:16:07.801Z,36.10
2022-08-03T11:18:37.602Z,36.20
2022-08-03T11:21:06.509Z,36.50
2022-08-03T11:24:04.858Z,36.40
2022-08-03T11:26:35.808Z,36.40
2022-08-03T11:29:29.428Z,36.30
2022-08-03T11:31:57.607Z,36.20
2022-08-03T11:34:25.742Z,36.60
2022-08-03T11:37:28.527Z,36.90
2022-08-03T11:39:59.458Z,36.70
2022-08-03T11:42:41.745Z,36.60
2022-08-03T11:45:10.884Z,36.40
2022-08-03T11:47:50.280Z,37.00
2022-08-03T11:50:21.095Z,36.70
2022-08-03T11:52:49.971Z,36.70
2022-08-03T11:55:20.427Z,37.00
2022-08-03T11:59:17.419Z,36.80
2022-08-03T12:00:38.166Z,36.80
2022-08-03T12:03:09.210Z,36.70
2022-08-03T12:05:39.523Z,36.60
2022-08-03T12:08:08.553Z,37.10
2022-08-03T12:10:37.325Z,37.00
2022-08-03T12:14:44.705Z,37.00
2022-08-03T12:15:59.151Z,37.20
2022-08-03T12:18:27.138Z,37.50
2022-08-03T12:21:06.096Z,37.50
2022-08-03T12:23:37.668Z,36.80
2022-08-03T12:26:07.644Z,36.80
2022-08-03T12:28:38.593Z,37.00
2022-08-03T12:31:09.184Z,36.50
2022-08-03T12:34:02.992Z,36.90
2022-08-03T12:36:34.977Z,37.00
2022-08-03T12:39:05.154Z,36.80
2022-08-03T12:41:35.729Z,37.00
2022-08-03T12:44:06.584Z,37.10
2022-08-03T12:46:36.465Z,37.10
2022-08-03T12:49:07.596Z,37.10
2022-08-03T12:51:38.164Z,37.10
2022-08-03T12:54:06.807Z,37.10
2022-08-03T12:56:36.393Z,37.10
2022-08-03T12:59:32.311Z,36.90
2022-08-03T13:02:09.694Z,36.70
2022-08-03T13:04:38.064Z,36.60
2022-08-03T13:07:16.789Z,36.50
2022-08-03T13:09:48.365Z,36.70
2022-08-03T13:12:17.685Z,36.70
2022-08-03T13:14:48.198Z,36.40
2022-08-03T13:17:17.402Z,36.50
2022-08-03T13:19:46.474Z,36.70
2022-08-03T13:22:15.691Z,36.40
2022-08-03T13:24:44.758Z,36.60
2022-08-03T13:28:02.727Z,36.60
2022-08-03T13:30:02.181Z,36.40
2022-08-03T13:32:30.148Z,36.30
2022-08-03T13:34:58.090Z,36.40
2022-08-03T13:37:26.435Z,36.60
2022-08-03T13:39:58.914Z,36.60
2022-08-03T13:42:29.850Z,36.90
2022-08-03T13:44:57.966Z,36.70
2022-08-03T13:47:27.654Z,36.60
2022-08-03T13:49:59.762Z,36.40
2022-08-03T13:52:30.530Z,36.30
2022-08-03T13:54:58.513Z,36.30
2022-08-03T13:58:02.243Z,36.30
2022-08-03T14:00:26.426Z,36.20
2022-08-03T14:03:05.222Z,36.20
2022-08-03T14:05:35.636Z,36.20
2022-08-03T14:08:05.670Z,36.50
2022-08-03T14:10:35.556Z,36.30
2022-08-03T14:13:03.963Z,36.10
2022-08-03T14:15:32.229Z,36.00
2022-08-03T14:18:07.365Z,36.20
2022-08-03T14:20:47.692Z,36.20
2022-08-03T14:23:17.420Z,36.50
2022-08-03T14:25:51.961Z,36.30
2022-08-03T14:28:22.400Z,35.90
2022-08-03T14:30:50.949Z,36.10
2022-08-03T14:33:20.374Z,36.10
2022-08-03T14:35:48.509Z,36.20
2022-08-03T14:38:16.671Z,36.10
2022-08-03T14:40:44.926Z,36.10
2022-08-03T14:43:12.929Z,35.90
2022-08-03T14:45:41.169Z,36.60
2022-08-03T14:50:29.595Z,36.00
2022-08-03T14:50:58.349Z,35.80
2022-08-03T14:53:26.273Z,35.70
2022-08-03T14:55:54.255Z,35.60
2022-08-03T14:58:22.791Z,35.60
2022-08-03T15:00:51.923Z,35.40
2022-08-03T15:03:23.565Z,35.50
2022-08-03T15:05:52.779Z,35.90
2022-08-03T15:08:23.010Z,35.80
2022-08-03T15:10:51.535Z,35.90
2022-08-03T15:13:20.406Z,36.20
2022-08-03T15:15:49.509Z,36.30
2022-08-03T15:18:17.499Z,36.20
2022-08-03T15:20:46.882Z,36.10
2022-08-03T15:23:16.183Z,36.20
2022-08-03T15:26:29.610Z,36.00
2022-08-03T15:28:34.781Z,35.90
2022-08-03T15:31:06.533Z,35.90
2022-08-03T15:33:35.195Z,35.80
2022-08-03T15:36:03.924Z,35.60
2022-08-03T15:38:31.955Z,35.60
2022-08-03T15:41:01.258Z,35.50
2022-08-03T15:43:29.230Z,35.70
2022-08-03T15:46:27.772Z,35.60
2022-08-03T15:48:46.750Z,35.50
2022-08-03T15:51:14.880Z,36.00
2022-08-03T15:53:43.101Z,35.40
2022-08-03T15:56:16.796Z,35.30
2022-08-03T15:59:09.395Z,35.30
2022-08-03T16:01:34.983Z,35.30
2022-08-03T16:04:02.968Z,35.20
2022-08-03T16:06:35.739Z,35.80
2022-08-03T16:09:24.053Z,35.30
2022-08-03T16:11:56.289Z,35.30
2022-08-03T16:14:32.722Z,35.20
2022-08-03T16:17:06.322Z,35.50
2022-08-03T16:19:34.218Z,35.40
2022-08-03T16:22:03.680Z,35.60
2022-08-03T16:24:32.211Z,35.70
2022-08-03T16:27:01.620Z,35.50
2022-08-03T16:29:29.659Z,35.50
2022-08-03T16:31:57.574Z,35.60
2022-08-03T16:34:25.538Z,35.60
2022-08-03T16:36:54.566Z,35.70
2022-08-03T16:39:22.647Z,35.60
2022-08-03T16:41:53.731Z,35.70
2022-08-03T16:44:31.614Z,35.80
2022-08-03T16:46:59.903Z,35.90
2022-08-03T16:49:53.191Z,35.80
2022-08-03T16:52:16.783Z,35.70
2022-08-03T16:54:52.744Z,35.70
2022-08-03T16:57:56.066Z,35.70
2022-08-03T17:00:34.100Z,35.90
2022-08-03T17:03:04.088Z,35.90
2022-08-03T17:05:47.450Z,35.90
2022-08-03T17:08:16.737Z,36.00
2022-08-03T17:10:54.221Z,35.90
2022-08-03T17:13:22.828Z,35.90
2022-08-03T17:16:00.621Z,35.90
2022-08-03T17:18:35.078Z,36.00
2022-08-03T17:21:05.937Z,36.00
2022-08-03T17:23:43.253Z,36.00
2022-08-03T17:26:21.070Z,36.20
2022-08-03T17:28:57.981Z,36.20
2022-08-03T17:31:31.813Z,36.20
2022-08-03T17:34:09.618Z,36.20
2022-08-03T17:37:03.249Z,36.20
2022-08-03T17:39:55.794Z,36.20
2022-08-03T17:42:30.008Z,36.40
2022-08-03T17:45:06.606Z,36.40
2022-08-03T17:47:42.774Z,36.40
2022-08-03T17:50:24.148Z,36.40
2022-08-03T17:53:07.592Z,36.40
2022-08-03T17:55:55.230Z,36.60
2022-08-03T17:58:52.775Z,36.30
2022-08-03T18:02:06.278Z,36.50
2022-08-03T18:04:40.519Z,37.10
2022-08-03T18:07:12.498Z,36.50
2022-08-03T18:10:03.805Z,36.50
2022-08-03T18:12:41.459Z,36.70
2022-08-03T18:15:20.964Z,36.70
2022-08-03T18:17:55.093Z,36.60
2022-08-03T18:20:41.208Z,36.70
2022-08-03T18:23:11.565Z,36.70
2022-08-03T18:25:58.041Z,36.70
2022-08-03T18:28:28.087Z,36.70
2022-08-03T18:30:57.105Z,36.70
2022-08-03T18:34:18.878Z,36.70
2022-08-03T18:36:29.433Z,36.70
2022-08-03T18:38:59.676Z,36.90
2022-08-03T18:41:33.398Z,36.80
2022-08-03T18:44:07.651Z,36.90
2022-08-03T18:47:07.373Z,37.00
2022-08-03T18:50:01.593Z,37.30
2022-08-03T18:52:38.084Z,37.40
2022-08-03T18:55:20.670Z,37.40
2022-08-03T18:58:00.875Z,37.40
2022-08-03T19:00:42.394Z,37.50
2022-08-03T19:03:24.868Z,37.50
2022-08-03T19:06:17.535Z,37.70
2022-08-03T19:08:55.518Z,37.50
2022-08-03T19:11:27.790Z,37.80
2022-08-03T19:13:59.418Z,37.80
2022-08-03T19:16:34.319Z,38.00
2022-08-03T19:21:31.586Z,37.50
2022-08-03T19:24:07.980Z,38.00
2022-08-03T19:26:39.605Z,38.30
2022-08-03T19:29:14.843Z,38.20
2022-08-03T19:31:58.923Z,38.30
2022-08-03T19:34:29.133Z,39.40
2022-08-03T19:36:58.469Z,38.50
2022-08-03T19:39:28.448Z,38.60
2022-08-03T19:42:12.153Z,38.70
2022-08-03T19:44:56.118Z,39.00
2022-08-03T19:47:32.977Z,38.90
2022-08-03T19:50:14.281Z,39.40
2022-08-03T19:52:46.260Z,39.10
2022-08-03T19:55:17.942Z,38.90
2022-08-03T19:57:50.131Z,39.10
2022-08-03T20:00:20.125Z,39.20
2022-08-03T20:02:55.087Z,39.00
2022-08-03T20:05:23.204Z,39.00
2022-08-03T20:07:51.610Z,39.10
2022-08-03T20:10:21.347Z,39.10
2022-08-03T20:12:50.464Z,39.30
2022-08-03T20:15:30.916Z,39.30
2022-08-03T20:18:00.159Z,39.40
2022-08-03T20:20:30.813Z,39.30
2022-08-03T20:23:00.021Z,39.50
2022-08-03T20:25:37.550Z,39.60
2022-08-03T20:28:13.774Z,39.80
2022-08-03T20:30:44.374Z,39.80
2022-08-03T20:33:18.302Z,39.80
2022-08-03T20:35:48.855Z,39.80
2022-08-03T20:38:18.713Z,39.70
2022-08-03T20:40:48.618Z,39.90
2022-08-03T20:43:16.934Z,40.00
2022-08-03T20:46:00.709Z,40.00
2022-08-03T20:48:36.945Z,40.00
2022-08-03T20:51:19.387Z,40.00
2022-08-03T20:54:00.504Z,40.20
2022-08-03T20:56:33.964Z,40.20
2022-08-03T20:59:04.696Z,40.60
2022-08-03T21:01:36.296Z,40.30
2022-08-03T21:04:07.050Z,40.40
2022-08-03T21:06:37.482Z,40.40
2022-08-03T21:09:07.370Z,40.50
2022-08-03T21:11:41.806Z,40.50
2022-08-03T21:14:14.162Z,40.60
2022-08-03T21:16:44.791Z,40.40
2022-08-03T21:19:13.225Z,40.60
2022-08-03T21:21:42.754Z,40.50
2022-08-03T21:24:13.628Z,40.50
2022-08-03T21:26:48.017Z,40.60
2022-08-03T21:29:16.734Z,40.70
2022-08-03T21:31:44.949Z,40.50
2022-08-03T21:34:12.866Z,40.60
2022-08-03T21:36:40.878Z,40.50
2022-08-03T21:39:11.502Z,40.60
2022-08-03T21:41:41.080Z,40.70
2022-08-03T21:44:10.575Z,40.70
2022-08-03T21:46:41.612Z,40.80
2022-08-03T21:50:04.479Z,40.80
2022-08-03T21:52:04.932Z,40.80
2022-08-03T21:54:36.202Z,40.80
2022-08-03T21:57:06.681Z,40.90
2022-08-03T21:59:38.193Z,40.70
2022-08-03T22:02:22.694Z,40.80
2022-08-03T22:04:56.334Z,40.60
2022-08-03T22:07:25.916Z,40.50
2022-08-03T22:09:54.273Z,40.60
2022-08-03T22:12:24.245Z,40.70
2022-08-03T22:15:00.368Z,40.90
2022-08-03T22:17:55.487Z,41.60
2022-08-03T22:20:20.631Z,40.90
2022-08-03T22:22:55.119Z,40.90
2022-08-03T22:25:27.146Z,40.90
2022-08-03T22:27:55.915Z,41.00
2022-08-03T22:30:25.592Z,41.00
2022-08-03T22:32:56.290Z,41.00
2022-08-03T22:35:26.683Z,41.00
2022-08-03T22:37:56.030Z,41.00
2022-08-03T22:40:24.473Z,41.00
2022-08-03T22:42:53.383Z,41.00
2022-08-03T22:46:07.428Z,41.10
2022-08-03T22:48:11.961Z,41.00
2022-08-03T22:50:41.539Z,41.00
2022-08-03T22:53:09.597Z,41.10
2022-08-03T22:55:38.154Z,41.00
2022-08-03T22:58:06.061Z,41.00
2022-08-03T23:00:34.157Z,41.00
2022-08-03T23:03:06.665Z,41.10
2022-08-03T23:06:00.840Z,41.30
2022-08-03T23:08:26.865Z,41.30
2022-08-03T23:10:57.150Z,41.10
2022-08-03T23:13:28.938Z,41.10
2022-08-03T23:15:59.244Z,41.30
2022-08-03T23:18:35.387Z,41.30
2022-08-03T23:21:11.189Z,41.60
2022-08-03T23:23:44.269Z,41.40
2022-08-03T23:26:13.585Z,41.30
2022-08-03T23:28:46.087Z,41.30
2022-08-03T23:31:15.706Z,41.30
2022-08-03T23:33:46.239Z,41.40
2022-08-03T23:36:30.526Z,41.40
2022-08-03T23:39:02.800Z,41.70
2022-08-03T23:41:31.456Z,41.40
2022-08-03T23:44:01.807Z,41.50
2022-08-03T23:46:31.801Z,41.50
2022-08-03T23:49:00.697Z,41.30
2022-08-03T23:51:40.101Z,41.50
2022-08-03T23:54:16.759Z,42.00
2022-08-03T23:56:54.012Z,41.70
2022-08-03T23:59:35.579Z,41.80
